createdAt,value
2023-04-02T00:00:10.185Z,96.15
2023-04-02T00:01:10.180Z,96.15
2023-04-02T00:02:10.227Z,96.88
2023-04-02T00:03:10.267Z,95.99
2023-04-02T00:04:10.213Z,96.41
2023-04-02T00:05:10.163Z,96.50
2023-04-02T00:06:10.109Z,96.36
2023-04-02T00:07:10.106Z,96.20
2023-04-02T00:08:10.149Z,95.84
2023-04-02T00:09:10.137Z,95.78
2023-04-02T00:10:10.111Z,96.30
2023-04-02T00:11:10.100Z,96.81
2023-04-02T00:12:10.064Z,96.61
2023-04-02T00:13:10.070Z,96.30
2023-04-02T00:14:10.117Z,96.34
2023-04-02T00:15:10.083Z,96.81
2023-04-02T00:16:10.098Z,96.81
2023-04-02T00:17:10.748Z,96.09
2023-04-02T00:18:10.064Z,96.61
2023-04-02T00:19:10.033Z,96.71
2023-04-02T00:20:10.018Z,96.81
2023-04-02T00:21:10.016Z,96.71
2023-04-02T00:22:10.035Z,97.13
2023-04-02T00:23:10.047Z,96.92
2023-04-02T00:24:10.043Z,96.61
2023-04-02T00:25:09.999Z,96.30
2023-04-02T00:26:10.002Z,95.99
2023-04-02T00:27:09.998Z,95.78
2023-04-02T00:28:10.010Z,95.83
2023-04-02T00:29:10.002Z,96.45
2023-04-02T00:30:09.954Z,96.24
2023-04-02T00:31:09.959Z,96.86
2023-04-02T00:32:09.938Z,97.17
2023-04-02T00:33:09.979Z,96.66
2023-04-02T00:34:09.945Z,96.92
2023-04-02T00:35:09.938Z,95.52
2023-04-02T00:36:09.983Z,95.83
2023-04-02T00:37:09.888Z,96.34
2023-04-02T00:38:09.933Z,96.03
2023-04-02T00:39:09.904Z,95.83
2023-04-02T00:40:09.899Z,96.24
2023-04-02T00:41:09.891Z,96.24
2023-04-02T00:42:09.856Z,96.61
2023-04-02T00:43:09.857Z,96.20
2023-04-02T00:44:09.861Z,95.10
2023-04-02T00:45:10.902Z,95.10
2023-04-02T00:46:09.899Z,95.00
2023-04-02T00:47:09.848Z,95.10
2023-04-02T00:48:09.856Z,95.48
2023-04-02T00:49:09.925Z,95.27
2023-04-02T00:50:09.848Z,95.06
2023-04-02T00:51:09.807Z,94.18
2023-04-02T00:52:09.822Z,94.28
2023-04-02T00:53:09.792Z,94.64
2023-04-02T00:54:09.812Z,96.08
2023-04-02T00:55:09.802Z,96.24
2023-04-02T00:56:09.802Z,96.24
2023-04-02T00:57:09.804Z,95.31
2023-04-02T00:58:09.768Z,95.36
2023-04-02T00:59:09.761Z,95.25
2023-04-02T01:00:09.751Z,96.39
2023-04-02T01:01:09.749Z,95.71
2023-04-02T16:44:26.026Z,74.43
2023-04-02T16:45:00.212Z,75.67
2023-04-02T16:46:00.255Z,75.63
2023-04-02T16:47:00.152Z,72.23
2023-04-02T16:48:01.197Z,74.29
2023-04-02T16:49:00.127Z,72.23
2023-04-02T16:50:00.140Z,70.57
2023-04-02T16:51:00.095Z,71.54
2023-04-02T16:52:00.103Z,73.39
2023-04-02T16:53:00.103Z,76.08
2023-04-02T16:54:02.120Z,77.08
2023-04-02T16:55:01.061Z,69.96
2023-04-02T16:56:00.124Z,70.68
2023-04-02T16:57:00.106Z,73.77
2023-04-02T16:58:00.050Z,69.48
2023-04-02T16:59:00.048Z,71.12
2023-04-02T17:00:00.052Z,73.71
2023-04-02T17:01:00.036Z,78.83
2023-04-02T17:02:00.044Z,74.71
2023-04-02T17:03:00.052Z,73.57
2023-04-02T17:04:00.176Z,77.45
2023-04-02T17:05:00.006Z,72.30
2023-04-02T17:06:00.006Z,70.44
2023-04-02T17:06:59.999Z,72.09
2023-04-02T17:07:59.985Z,72.71
2023-04-02T17:08:59.997Z,75.09
2023-04-02T17:09:59.972Z,75.70
2023-04-02T17:10:59.969Z,73.85
2023-04-02T17:11:59.931Z,73.95
2023-04-02T17:12:59.956Z,73.85
2023-04-02T17:13:59.930Z,74.67
2023-04-02T17:15:00.019Z,74.98
2023-04-02T17:16:01.006Z,73.71
2023-04-02T17:16:59.926Z,69.62
2023-04-02T17:17:59.991Z,68.17
2023-04-02T17:18:59.925Z,68.93
2023-04-02T17:19:59.926Z,70.68
2023-04-02T17:20:59.911Z,75.22
2023-04-02T17:21:59.895Z,76.46
2023-04-02T17:22:59.915Z,75.67
2023-04-02T17:23:59.911Z,75.43
2023-04-02T17:24:59.956Z,73.57
2023-04-02T17:25:59.884Z,76.56
2023-04-02T17:26:59.887Z,70.27
2023-04-02T17:27:59.874Z,69.24
2023-04-02T17:29:00.850Z,72.54
2023-04-02T17:29:59.882Z,77.08
2023-04-02T17:30:59.847Z,72.64
2023-04-02T17:32:01.668Z,70.89
2023-04-02T17:33:00.906Z,69.24
2023-04-02T17:33:59.801Z,66.79
2023-04-02T17:34:59.822Z,73.29
2023-04-02T17:35:59.883Z,74.88
2023-04-02T17:36:59.817Z,73.64
2023-04-02T17:37:59.810Z,71.75
2023-04-02T17:38:59.782Z,72.81
2023-04-02T17:39:59.786Z,69.09
2023-04-02T17:40:59.781Z,72.74
2023-04-02T17:41:59.756Z,76.32
2023-04-02T17:42:59.758Z,68.99
2023-04-02T17:43:59.744Z,69.82
2023-04-02T17:44:59.742Z,74.05
2023-04-02T17:45:59.798Z,68.16
2023-04-02T17:46:59.751Z,69.51
2023-04-02T17:47:59.818Z,69.40
2023-04-02T17:49:01.417Z,69.02
2023-04-02T17:49:59.776Z,71.71
2023-04-02T17:50:59.740Z,76.67
2023-04-02T17:51:59.704Z,75.70
2023-04-02T17:53:00.670Z,73.85
2023-04-02T17:53:59.682Z,68.99
2023-04-02T17:54:59.680Z,72.81
2023-04-02T17:55:59.667Z,69.85
2023-04-02T17:56:59.672Z,67.68
2023-04-02T17:58:00.712Z,69.98
2023-04-02T17:58:59.666Z,69.57
2023-04-02T17:59:59.647Z,67.43
2023-04-02T18:00:59.662Z,69.40
2023-04-02T18:01:59.648Z,68.91
2023-04-02T18:02:59.827Z,68.91
2023-04-02T18:03:59.689Z,69.84
2023-04-02T18:04:59.604Z,75.43
2023-04-02T18:05:59.597Z,77.29
2023-04-02T18:07:00.604Z,75.81
2023-04-02T18:07:59.600Z,74.84
2023-04-02T18:08:59.620Z,70.50
2023-04-02T18:09:59.704Z,78.42
2023-04-02T18:10:59.546Z,78.22
2023-04-02T18:12:00.523Z,74.71
2023-04-02T18:12:59.545Z,76.43
2023-04-02T18:13:59.528Z,70.43
2023-04-02T18:14:59.570Z,69.71
2023-04-02T18:15:59.514Z,73.12
2023-04-02T18:16:59.628Z,68.99
2023-04-02T18:18:00.282Z,67.96
2023-04-02T18:18:59.492Z,71.98
2023-04-02T18:19:59.520Z,78.80
2023-04-02T18:20:59.525Z,70.09
2023-04-02T18:21:59.485Z,73.60
2023-04-02T18:22:59.500Z,69.89
2023-04-02T18:23:59.453Z,69.30
2023-04-02T18:24:59.517Z,74.26
2023-04-02T18:25:59.445Z,68.58
2023-04-02T18:26:59.446Z,68.16
2023-04-02T18:27:59.460Z,68.27
2023-04-02T18:28:59.455Z,68.82
2023-04-02T18:29:59.444Z,66.99
2023-04-02T18:30:59.448Z,67.40
2023-04-02T18:31:59.452Z,72.98
2023-04-02T18:32:59.519Z,68.54
2023-04-02T18:33:59.443Z,74.02
2023-04-02T18:34:59.428Z,70.71
2023-04-02T18:35:59.456Z,76.18
2023-04-02T18:36:59.395Z,69.16
2023-04-02T18:37:59.408Z,76.81
2023-04-02T18:38:59.378Z,72.88
2023-04-02T18:39:59.371Z,68.95
2023-04-02T18:40:59.367Z,69.64
2023-04-02T18:41:59.377Z,73.71
2023-04-02T18:42:59.333Z,72.16
2023-04-02T18:43:59.322Z,70.19
2023-04-02T18:44:59.357Z,70.09
2023-04-02T18:45:59.367Z,67.85
2023-04-02T18:46:59.325Z,74.57
2023-04-02T18:47:59.342Z,69.81
2023-04-02T18:48:59.325Z,67.57
2023-04-02T18:49:59.316Z,70.67
2023-04-02T18:50:59.303Z,74.91
2023-04-02T18:51:59.281Z,71.81
2023-04-02T18:52:59.300Z,72.74
2023-04-02T18:53:59.262Z,73.67
2023-04-02T18:54:59.276Z,79.26
2023-04-02T18:55:59.258Z,70.05
2023-04-02T18:56:59.289Z,69.50
2023-04-02T18:57:59.348Z,70.26
2023-04-02T18:59:00.241Z,69.64
2023-04-02T18:59:59.226Z,72.64
2023-04-02T19:01:00.149Z,75.29
2023-04-02T19:01:59.195Z,71.60
2023-04-02T19:02:59.461Z,69.50
2023-04-02T19:03:59.264Z,69.43
2023-04-02T19:04:59.183Z,70.64
2023-04-02T19:05:59.198Z,74.05
2023-04-02T19:06:59.242Z,73.33
2023-04-02T19:07:59.172Z,69.29
2023-04-02T19:08:59.157Z,71.67
2023-04-02T19:09:59.143Z,71.67
2023-04-02T19:10:59.140Z,70.74
2023-04-02T19:11:59.143Z,69.50
2023-04-02T19:12:59.124Z,69.12
2023-04-02T19:13:59.121Z,70.01
2023-04-02T19:15:00.149Z,68.60
2023-04-02T19:16:00.097Z,66.74
2023-04-02T19:17:00.154Z,67.57
2023-04-02T19:17:59.189Z,69.22
2023-04-02T19:18:59.095Z,67.77
2023-04-02T19:19:59.076Z,69.74
2023-04-02T19:20:59.074Z,70.18
2023-04-02T19:21:59.874Z,74.29
2023-04-02T19:22:59.088Z,70.77
2023-04-02T19:23:59.066Z,68.60
2023-04-02T19:24:59.085Z,72.74
2023-04-02T19:25:59.107Z,69.92
2023-04-02T19:26:59.035Z,70.64
2023-04-02T19:27:59.021Z,74.57
2023-04-02T19:28:59.067Z,70.12
2023-04-02T19:29:59.179Z,68.67
2023-04-02T19:30:59.024Z,75.29
2023-04-02T19:32:00.033Z,72.47
2023-04-02T19:32:59.052Z,78.56
2023-04-02T19:33:59.177Z,75.26
2023-04-02T19:34:58.995Z,75.63
2023-04-02T19:35:59.034Z,69.85
2023-04-02T19:36:59.024Z,69.95
2023-04-02T19:37:58.974Z,69.16
2023-04-02T19:38:58.933Z,70.19
2023-04-02T19:39:58.973Z,69.29
2023-04-02T19:40:59.017Z,67.95
2023-04-02T19:41:58.992Z,68.46
2023-04-02T19:42:58.914Z,69.12
2023-04-02T19:43:58.920Z,70.26
2023-04-02T19:44:58.897Z,70.15
2023-04-02T19:45:58.908Z,67.70
2023-04-02T19:46:59.074Z,69.25
2023-04-02T19:47:58.977Z,69.56
2023-04-02T19:48:58.895Z,69.15
2023-04-02T19:49:58.890Z,68.98
2023-04-02T19:50:58.867Z,69.77
2023-04-02T19:51:58.851Z,69.08
2023-04-02T19:52:58.829Z,69.80
2023-04-02T19:53:58.856Z,69.39
2023-04-02T19:54:58.880Z,69.90
2023-04-02T19:55:58.900Z,70.21
2023-04-02T19:56:58.941Z,70.01
2023-04-02T19:58:12.583Z,69.87
2023-04-02T19:59:07.782Z,69.39
2023-04-02T20:00:00.801Z,69.80
2023-04-02T20:00:58.857Z,70.11
2023-04-02T20:01:58.806Z,71.15
2023-04-02T20:02:58.852Z,74.67
2023-04-02T20:03:58.774Z,70.73
2023-04-02T20:04:58.851Z,71.73
2023-04-02T20:05:58.770Z,72.77
2023-04-02T20:06:58.753Z,70.60
2023-04-02T20:07:58.762Z,71.36
2023-04-02T20:08:58.719Z,70.11
2023-04-02T20:09:58.714Z,69.49
2023-04-02T20:10:58.720Z,70.42
2023-04-02T20:11:58.707Z,71.25
2023-04-02T20:12:58.706Z,71.67
2023-04-02T20:13:58.680Z,71.15
2023-04-02T20:14:58.668Z,76.09
2023-04-02T20:15:58.692Z,73.60
2023-04-02T20:16:58.737Z,75.78
2023-04-02T20:17:58.685Z,73.71
2023-04-02T20:18:58.654Z,76.19
2023-04-02T20:19:58.651Z,72.64
2023-04-02T20:20:58.694Z,70.26
2023-04-02T20:21:58.624Z,74.29
2023-04-02T20:22:59.632Z,74.81
2023-04-02T20:23:58.622Z,73.84
2023-04-02T20:24:58.704Z,73.36
2023-04-02T20:25:58.615Z,74.88
2023-04-02T20:26:58.599Z,72.60
2023-04-02T20:27:58.600Z,73.94
2023-04-02T20:28:58.596Z,77.47
2023-04-02T20:29:58.591Z,76.29
2023-04-02T20:30:58.655Z,76.50
2023-04-02T20:32:00.348Z,75.63
2023-04-02T20:32:58.744Z,75.95
2023-04-02T20:33:58.762Z,73.47
2023-04-02T20:34:58.563Z,70.26
2023-04-02T20:35:58.567Z,70.26
2023-04-02T20:36:58.562Z,69.60
2023-04-02T20:37:58.545Z,68.98
2023-04-02T20:38:58.511Z,69.95
2023-04-02T20:39:58.525Z,74.08
2023-04-02T20:40:59.532Z,70.15
2023-04-02T20:41:58.494Z,76.26
2023-04-02T20:42:58.499Z,74.26
2023-04-02T20:43:58.493Z,74.50
2023-04-02T20:44:58.532Z,76.43
2023-04-02T20:45:58.552Z,70.32
2023-04-02T20:46:58.476Z,77.56
2023-04-02T20:47:58.513Z,72.98
2023-04-02T20:48:58.461Z,75.26
2023-04-02T20:49:58.445Z,73.81
2023-04-02T20:50:58.628Z,73.19
2023-04-02T20:51:58.428Z,76.36
2023-04-02T20:52:58.439Z,77.56
2023-04-02T20:53:58.418Z,76.05
2023-04-02T20:54:58.430Z,73.98
2023-04-02T20:55:58.406Z,72.61
2023-04-02T20:56:58.444Z,79.01
2023-04-02T20:57:58.415Z,73.85
2023-04-02T20:58:58.369Z,73.39
2023-04-02T20:59:58.394Z,73.81
2023-04-02T21:00:58.399Z,72.78
2023-04-02T21:01:58.413Z,69.48
2023-04-02T21:02:58.406Z,67.24
2023-04-02T21:03:58.359Z,66.20
2023-04-02T21:04:58.395Z,66.60
2023-04-02T21:05:58.355Z,68.98
2023-04-02T21:06:58.327Z,72.50
2023-04-02T21:07:58.335Z,74.67
2023-04-02T21:08:58.331Z,71.36
2023-04-02T21:09:58.406Z,75.70
2023-04-02T21:10:58.676Z,72.81
2023-04-02T21:11:58.297Z,70.40
2023-04-02T21:12:58.301Z,69.29
2023-04-02T21:13:58.285Z,69.81
2023-04-02T21:15:00.223Z,72.39
2023-04-02T21:15:58.308Z,72.50
2023-04-02T21:16:58.299Z,69.92
2023-04-02T21:17:58.344Z,70.32
2023-04-02T21:18:58.261Z,75.09
2023-04-02T21:19:58.262Z,74.84
2023-04-02T21:20:58.240Z,71.53
2023-04-02T21:21:58.268Z,70.09
2023-04-02T21:22:58.223Z,76.98
2023-04-02T21:23:58.212Z,72.33
2023-04-02T21:24:58.219Z,70.09
2023-04-02T21:25:58.226Z,73.91
2023-04-02T21:26:58.185Z,76.56
2023-04-02T21:27:58.182Z,76.05
2023-04-02T21:28:58.210Z,71.30
2023-04-02T21:29:58.195Z,72.85
2023-04-02T21:30:58.172Z,72.43
2023-04-02T21:31:59.798Z,72.64
2023-04-02T21:32:58.184Z,71.30
2023-04-02T21:33:58.139Z,68.43
2023-04-02T21:34:58.145Z,72.43
2023-04-02T21:35:58.188Z,75.95
2023-04-02T21:36:58.134Z,72.22
2023-04-02T21:37:58.153Z,75.74
2023-04-02T21:38:58.131Z,72.43
2023-04-02T21:39:58.120Z,67.50
2023-04-02T21:40:58.130Z,71.61
2023-04-02T21:41:58.120Z,74.29
2023-04-02T21:42:58.078Z,70.92
2023-04-02T21:43:58.071Z,72.78
2023-04-02T21:44:58.100Z,74.12
